Time;durP1;ratioP1;P1;durP2;ratioP2;P2;SDS_P1;SDS_P2;PMS_P1;PMS_P2;Temp;Humidity;BMP_temperature;BMP_pressure;BME280_temperature;BME280_humidity;BME280_pressure;Samples;Min_cycle;Max_cycle;Signal;HPM_P1;HPM_P2
2022/09/03 00:00:13;;;;;;;0.00;0.00;;;16.20;85.80;;;;;;4887730;29;20061;-78
2022/09/03 00:02:45;;;;;;;0.00;0.00;;;16.20;86.20;;;;;;4908088;29;20048;-80
2022/09/03 00:05:22;;;;;;;0.00;0.00;;;16.20;86.20;;;;;;4892802;29;20037;-80
2022/09/03 00:07:56;;;;;;;0.00;0.00;;;16.10;86.40;;;;;;4893133;29;20044;-79
2022/09/03 00:10:31;;;;;;;0.00;0.00;;;16.10;88.00;;;;;;4887312;29;21769;-78
2022/09/03 00:13:02;;;;;;;0.00;0.00;;;16.00;87.40;;;;;;4890612;29;20037;-80
2022/09/03 00:15:32;;;;;;;0.00;0.00;;;15.90;87.70;;;;;;4881034;29;20051;-81
2022/09/03 00:18:04;;;;;;;0.00;0.00;;;15.80;87.80;;;;;;4885220;29;20043;-80
2022/09/03 00:20:35;;;;;;;0.00;0.00;;;15.80;87.90;;;;;;4888544;29;20045;-79
2022/09/03 00:23:05;;;;;;;0.00;0.00;;;15.80;87.30;;;;;;4889371;29;20048;-80
2022/09/03 00:25:38;;;;;;;0.00;0.00;;;15.80;87.40;;;;;;4890265;29;20044;-81
2022/09/03 00:28:12;;;;;;;0.00;0.00;;;15.80;88.50;;;;;;4889404;29;20339;-80
2022/09/03 00:30:41;;;;;;;0.00;0.00;;;15.80;87.90;;;;;;4892372;29;20056;-80
2022/09/03 00:33:12;;;;;;;0.00;0.00;;;15.70;87.70;;;;;;4891260;29;20526;-79
2022/09/03 00:35:44;;;;;;;0.00;0.00;;;15.70;88.00;;;;;;4893538;29;20045;-80
2022/09/03 00:38:11;;;;;;;0.00;0.00;;;15.70;87.60;;;;;;4904942;29;20055;-78
2022/09/03 00:40:55;;;;;;;0.00;0.00;;;15.70;88.10;;;;;;4894153;29;20053;-79
2022/09/03 00:43:33;;;;;;;0.00;0.00;;;15.70;87.90;;;;;;4891246;29;20045;-78
2022/09/03 00:46:08;;;;;;;0.00;0.00;;;15.60;87.80;;;;;;4891570;29;20310;-78
2022/09/03 00:48:49;;;;;;;0.00;0.00;;;15.60;88.60;;;;;;4888299;29;20052;-78
2022/09/03 00:51:27;;;;;;;0.00;0.00;;;15.60;87.70;;;;;;4889948;29;20056;-78
2022/09/03 00:54:04;;;;;;;0.00;0.00;;;15.60;88.70;;;;;;4894286;29;20146;-79
2022/09/03 00:56:41;;;;;;;0.00;0.00;;;15.50;89.20;;;;;;4903816;29;20100;-80
2022/09/03 00:59:19;;;;;;;0.00;0.00;;;15.50;89.70;;;;;;4903360;29;20044;-80
2022/09/03 01:01:55;;;;;;;0.00;0.00;;;15.40;89.40;;;;;;4895262;29;20051;-79
2022/09/03 01:04:34;;;;;;;0.00;0.00;;;15.40;89.20;;;;;;4888246;29;20059;-80
2022/09/03 01:07:06;;;;;;;0.00;0.00;;;15.30;90.00;;;;;;4889803;29;20045;-80
2022/09/03 01:09:47;;;;;;;0.00;0.00;;;15.30;90.00;;;;;;4892507;29;20453;-78
2022/09/03 01:12:29;;;;;;;0.00;0.00;;;15.30;90.40;;;;;;4905393;29;20494;-79
2022/09/03 01:15:05;;;;;;;0.00;0.00;;;15.20;90.30;;;;;;4894137;29;20044;-79
2022/09/03 01:17:44;;;;;;;0.00;0.00;;;15.20;90.30;;;;;;4893138;29;20056;-80
2022/09/03 01:20:34;;;;;;;0.00;0.00;;;15.10;90.50;;;;;;4893390;29;20055;-80
2022/09/03 01:23:37;;;;;;;0.00;0.00;;;15.10;90.60;;;;;;4893662;29;20409;-80
2022/09/03 01:26:23;;;;;;;0.00;0.00;;;15.00;90.60;;;;;;4887927;29;20418;-81
2022/09/03 01:29:01;;;;;;;0.00;0.00;;;15.00;90.50;;;;;;4895917;29;20485;-80
2022/09/03 01:31:35;;;;;;;0.00;0.00;;;15.00;90.40;;;;;;4896838;29;20045;-79
2022/09/03 01:34:12;;;;;;;0.00;0.00;;;15.00;90.70;;;;;;4907236;29;20524;-80
2022/09/03 01:36:50;;;;;;;0.00;0.00;;;15.00;90.60;;;;;;4914785;29;20072;-80
2022/09/03 01:39:28;;;;;;;0.00;0.00;;;15.00;90.70;;;;;;4898353;29;20418;-79
2022/09/03 01:42:17;;;;;;;0.00;0.00;;;15.00;90.80;;;;;;4893982;29;20045;-79
2022/09/03 01:45:20;;;;;;;0.00;0.00;;;14.90;90.70;;;;;;4913413;29;20051;-79
2022/09/03 01:48:01;;;;;;;0.00;0.00;;;14.90;90.90;;;;;;4897160;29;20052;-78
2022/09/03 01:50:37;;;;;;;0.00;0.00;;;14.80;90.80;;;;;;4894544;29;20068;-80
2022/09/03 01:53:12;;;;;;;0.00;0.00;;;14.80;91.10;;;;;;4897039;29;20053;-80
2022/09/03 01:55:46;;;;;;;0.00;0.00;;;14.80;91.10;;;;;;4914421;29;20044;-80
2022/09/03 01:58:18;;;;;;;0.00;0.00;;;14.80;90.80;;;;;;4912806;29;20078;-80
2022/09/03 02:00:51;;;;;;;0.00;0.00;;;14.80;90.80;;;;;;4892939;29;20520;-79
2022/09/03 02:03:18;;;;;;;0.00;0.00;;;14.70;91.10;;;;;;4893347;29;20045;-79
2022/09/03 02:05:45;;;;;;;0.00;0.00;;;14.80;90.80;;;;;;4897978;29;20056;-80
2022/09/03 02:08:12;;;;;;;0.00;0.00;;;14.80;90.50;;;;;;4908661;29;20049;-79
2022/09/03 02:10:42;;;;;;;0.00;0.00;;;14.80;91.00;;;;;;4897084;29;20045;-80
2022/09/03 02:13:10;;;;;;;;;;;14.70;91.00;;;;;;4913274;29;20055;-78
2022/09/03 02:15:40;;;;;;;0.00;0.00;;;14.80;90.90;;;;;;4896642;29;19927;-79
2022/09/03 02:18:13;;;;;;;0.00;0.00;;;14.80;90.70;;;;;;4898760;29;20037;-79
2022/09/03 02:20:41;;;;;;;0.00;0.00;;;14.80;91.00;;;;;;4898106;29;20057;-80
2022/09/03 02:23:08;;;;;;;0.10;0.10;;;14.80;91.20;;;;;;4896076;29;20041;-80
2022/09/03 02:25:38;;;;;;;0.00;0.00;;;14.80;90.80;;;;;;4913208;29;20036;-79
2022/09/03 02:28:07;;;;;;;0.10;0.10;;;14.70;91.00;;;;;;4897253;29;20048;-79
2022/09/03 02:30:53;;;;;;;0.00;0.00;;;14.70;91.20;;;;;;4897686;29;20057;-78
2022/09/03 02:33:22;;;;;;;0.00;0.00;;;14.70;90.70;;;;;;4895355;29;20411;-79
2022/09/03 02:35:49;;;;;;;0.00;0.00;;;14.70;90.90;;;;;;4897308;29;20526;-80
2022/09/03 02:38:19;;;;;;;0.00;0.00;;;14.70;90.80;;;;;;4895246;29;20126;-79
2022/09/03 02:40:46;;;;;;;0.00;0.00;;;14.70;90.90;;;;;;4892622;29;20060;-78
2022/09/03 02:43:17;;;;;;;0.00;0.00;;;14.70;90.70;;;;;;4892821;29;20060;-78
2022/09/03 02:45:47;;;;;;;0.00;0.00;;;14.70;90.80;;;;;;4895043;29;20462;-77
2022/09/03 02:48:20;;;;;;;0.00;0.00;;;14.80;90.90;;;;;;4893093;29;20048;-80
2022/09/03 02:50:48;;;;;;;0.00;0.00;;;14.80;90.70;;;;;;4894612;29;20051;-80
2022/09/03 02:53:15;;;;;;;0.03;0.03;;;14.80;90.80;;;;;;4891360;29;20237;-78
2022/09/03 02:55:43;;;;;;;0.00;0.00;;;14.80;90.80;;;;;;4908323;29;20048;-78
2022/09/03 02:58:10;;;;;;;0.00;0.00;;;14.80;90.90;;;;;;4897739;29;20076;-80
2022/09/03 03:00:37;;;;;;;0.00;0.00;;;14.80;90.80;;;;;;4890848;29;20032;-80
2022/09/03 03:03:05;;;;;;;0.00;0.00;;;14.80;90.90;;;;;;4886011;29;20395;-80
2022/09/03 03:05:42;;;;;;;0.00;0.00;;;14.80;90.90;;;;;;4908800;29;20061;-80
2022/09/03 03:08:13;;;;;;;0.00;0.00;;;14.80;90.80;;;;;;4892033;29;20044;-79
2022/09/03 03:10:43;;;;;;;0.00;0.00;;;14.80;90.80;;;;;;4909351;29;20044;-80
2022/09/03 03:13:10;;;;;;;0.00;0.00;;;14.70;90.90;;;;;;4910853;29;20104;-80
2022/09/03 03:15:37;;;;;;;0.00;0.00;;;14.70;91.00;;;;;;4888868;29;20461;-78
2022/09/03 03:18:06;;;;;;;0.00;0.00;;;14.70;90.80;;;;;;4909356;29;20055;-79
2022/09/03 03:20:33;;;;;;;0.00;0.00;;;14.70;90.80;;;;;;4896763;29;20032;-80
2022/09/03 03:23:00;;;;;;;0.00;0.00;;;14.70;91.00;;;;;;4896236;29;20465;-80
2022/09/03 03:25:31;;;;;;;0.00;0.00;;;14.70;90.90;;;;;;4909728;29;20075;-79
2022/09/03 03:27:57;;;;;;;0.00;0.00;;;14.80;90.80;;;;;;4907626;29;20106;-79
2022/09/03 03:32:54;;;;;;;0.00;0.00;;;14.80;90.90;;;;;;4879604;29;20061;-83
2022/09/03 03:35:22;;;;;;;0.00;0.00;;;14.80;90.90;;;;;;4874540;29;20041;-83
2022/09/03 03:37:49;;;;;;;0.00;0.00;;;14.80;91.30;;;;;;4880591;29;20463;-82
2022/09/03 03:40:16;;;;;;;0.03;0.03;;;14.70;91.40;;;;;;4879049;29;20048;-80
2022/09/03 03:42:44;;;;;;;0.00;0.00;;;14.70;91.40;;;;;;4878145;29;20063;-80
2022/09/03 03:45:11;;;;;;;0.00;0.00;;;14.70;91.20;;;;;;4878787;29;20049;-80
2022/09/03 03:47:38;;;;;;;0.00;0.00;;;14.60;91.40;;;;;;4878852;29;20045;-82
2022/09/03 03:50:05;;;;;;;0.00;0.00;;;14.60;91.20;;;;;;4880914;29;20053;-81
2022/09/03 03:52:32;;;;;;;0.00;0.00;;;14.70;91.30;;;;;;4881470;29;20049;-82
2022/09/03 03:54:59;;;;;;;0.00;0.00;;;14.70;91.40;;;;;;4877731;29;20052;-82
2022/09/03 03:57:29;;;;;;;0.10;0.10;;;14.60;91.40;;;;;;4881359;29;20049;-82
2022/09/03 03:59:58;;;;;;;0.00;0.00;;;14.60;91.20;;;;;;4878109;29;20053;-82
2022/09/03 04:02:24;;;;;;;0.00;0.00;;;14.60;91.40;;;;;;4872302;29;20505;-83
2022/09/03 04:04:51;;;;;;;0.00;0.00;;;14.70;91.40;;;;;;4874422;29;20052;-81
2022/09/03 04:07:18;;;;;;;0.00;0.00;;;14.70;91.40;;;;;;4881289;29;20049;-82
2022/09/03 04:09:46;;;;;;;0.00;0.00;;;14.60;91.30;;;;;;4877829;29;20049;-82
2022/09/03 04:12:12;;;;;;;0.00;0.00;;;14.60;91.40;;;;;;4878203;29;20045;-82
2022/09/03 04:14:40;;;;;;;0.00;0.00;;;14.60;91.70;;;;;;4874945;29;20533;-81
2022/09/03 04:17:09;;;;;;;0.00;0.00;;;14.50;91.60;;;;;;4875126;29;20510;-81
2022/09/03 04:19:36;;;;;;;0.00;0.00;;;14.50;91.70;;;;;;4877956;29;20045;-83
2022/09/03 04:22:03;;;;;;;0.00;0.00;;;14.50;91.60;;;;;;4881866;29;20037;-82
2022/09/03 04:24:31;;;;;;;0.03;0.03;;;14.50;91.60;;;;;;4882931;29;20501;-82
2022/09/03 04:26:58;;;;;;;0.00;0.00;;;14.50;92.00;;;;;;4881190;29;20057;-83
2022/09/03 04:29:24;;;;;;;0.00;0.00;;;14.50;91.70;;;;;;4876799;29;20056;-83
2022/09/03 04:34:38;;;;;;;0.00;0.00;;;14.50;91.90;;;;;;4879052;29;20052;-83
2022/09/03 04:37:05;;;;;;;0.00;0.00;;;14.50;91.80;;;;;;4880075;29;20044;-83
2022/09/03 04:39:32;;;;;;;0.00;0.00;;;14.50;91.80;;;;;;4880991;29;20045;-82
2022/09/03 04:41:58;;;;;;;0.00;0.00;;;14.60;91.70;;;;;;4874849;29;20530;-81
2022/09/03 04:44:25;;;;;;;0.00;0.00;;;14.60;91.80;;;;;;4876260;29;20053;-82
2022/09/03 04:46:52;;;;;;;0.00;0.00;;;14.60;91.80;;;;;;4880519;29;20493;-81
2022/09/03 04:49:19;;;;;;;0.00;0.00;;;14.60;91.90;;;;;;4882516;29;20037;-82
2022/09/03 04:51:47;;;;;;;0.00;0.00;;;14.50;92.10;;;;;;4876595;29;20045;-82
2022/09/03 04:54:14;;;;;;;0.00;0.00;;;14.50;91.90;;;;;;4877480;29;20049;-81
2022/09/03 04:56:41;;;;;;;0.00;0.00;;;14.80;92.20;;;;;;4881693;29;20066;-82
2022/09/03 04:59:08;;;;;;;0.00;0.00;;;14.50;92.10;;;;;;4876494;29;20947;-81
2022/09/03 05:01:37;;;;;;;0.00;0.00;;;14.40;92.20;;;;;;4878984;29;20498;-82
2022/09/03 05:04:05;;;;;;;0.00;0.00;;;14.40;92.90;;;;;;4878770;29;20124;-82
2022/09/03 05:06:33;;;;;;;0.00;0.00;;;14.40;92.30;;;;;;4875248;29;20461;-82
2022/09/03 05:09:02;;;;;;;0.00;0.00;;;14.40;92.30;;;;;;4874157;29;20045;-83
2022/09/03 05:11:29;;;;;;;0.00;0.00;;;14.50;92.30;;;;;;4876847;29;20486;-82
2022/09/03 05:13:57;;;;;;;0.00;0.00;;;14.50;92.20;;;;;;4877404;29;20059;-82
2022/09/03 05:16:26;;;;;;;0.00;0.00;;;14.60;92.20;;;;;;4876285;29;20064;-83
2022/09/03 05:18:55;;;;;;;0.00;0.00;;;14.50;92.30;;;;;;4877071;29;20061;-82
2022/09/03 05:21:22;;;;;;;0.00;0.00;;;14.50;92.40;;;;;;4876556;29;20072;-82
2022/09/03 05:23:50;;;;;;;0.00;0.00;;;14.50;92.50;;;;;;4877320;29;20053;-82
2022/09/03 05:26:19;;;;;;;0.00;0.00;;;14.50;92.60;;;;;;4877908;29;20045;-82
2022/09/03 05:28:47;;;;;;;0.00;0.00;;;14.50;92.50;;;;;;4879112;29;20509;-81
2022/09/03 05:31:16;;;;;;;0.00;0.00;;;14.50;92.70;;;;;;4877787;29;20131;-82
2022/09/03 05:33:44;;;;;;;0.00;0.00;;;14.50;92.60;;;;;;4876256;29;20045;-82
2022/09/03 05:36:13;;;;;;;0.00;0.00;;;14.50;92.90;;;;;;4880889;29;20451;-81
2022/09/03 05:38:39;;;;;;;0.00;0.00;;;14.50;93.00;;;;;;4874945;29;20053;-82
2022/09/03 05:41:08;;;;;;;0.00;0.00;;;14.50;92.90;;;;;;4877962;29;20053;-82
2022/09/03 05:43:37;;;;;;;0.00;0.00;;;14.50;92.80;;;;;;4877042;29;20056;-82
2022/09/03 05:46:06;;;;;;;0.00;0.00;;;14.60;92.70;;;;;;4879325;29;20057;-82
2022/09/03 05:48:34;;;;;;;0.00;0.00;;;14.70;92.70;;;;;;4879493;29;20045;-82
2022/09/03 05:51:02;;;;;;;0.00;0.00;;;14.70;92.80;;;;;;4872831;29;20528;-82
2022/09/03 05:53:31;;;;;;;0.00;0.00;;;14.70;92.70;;;;;;4879435;29;20513;-82
2022/09/03 05:55:59;;;;;;;0.00;0.00;;;14.70;92.70;;;;;;4875768;29;20511;-82
2022/09/03 05:58:29;;;;;;;0.00;0.00;;;14.70;92.60;;;;;;4876734;29;21875;-82
2022/09/03 06:00:58;;;;;;;0.00;0.00;;;14.70;92.60;;;;;;4875826;29;20045;-82
2022/09/03 06:03:25;;;;;;;0.00;0.00;;;14.70;93.00;;;;;;4875838;29;20049;-82
2022/09/03 06:05:53;;;;;;;0.00;0.00;;;14.80;92.90;;;;;;4879955;29;21766;-82
2022/09/03 06:08:20;;;;;;;0.00;0.00;;;14.80;92.80;;;;;;4875219;29;20041;-82
2022/09/03 06:10:47;;;;;;;0.00;0.00;;;14.70;93.20;;;;;;4871622;29;20112;-80
2022/09/03 06:13:14;;;;;;;0.00;0.00;;;14.80;92.80;;;;;;4880638;29;20521;-83
2022/09/03 06:15:41;;;;;;;0.00;0.00;;;14.90;92.80;;;;;;4884262;29;20037;-83
2022/09/03 06:18:10;;;;;;;0.00;0.00;;;14.90;92.60;;;;;;4882260;29;20052;-83
2022/09/03 06:20:36;;;;;;;0.00;0.00;;;15.00;92.30;;;;;;4858583;29;20048;-82
2022/09/03 06:23:03;;;;;;;0.00;0.00;;;15.00;92.50;;;;;;4890498;29;20045;-82
2022/09/03 06:25:30;;;;;;;0.00;0.00;;;15.10;92.70;;;;;;4879784;29;20447;-82
2022/09/03 06:27:58;;;;;;;0.00;0.00;;;15.10;92.40;;;;;;4872910;29;20084;-81
2022/09/03 06:30:26;;;;;;;0.00;0.00;;;15.20;92.20;;;;;;4878269;29;20132;-82
2022/09/03 06:32:53;;;;;;;0.00;0.00;;;15.30;92.20;;;;;;4877800;29;20101;-81
2022/09/03 06:35:21;;;;;;;0.00;0.00;;;15.30;91.90;;;;;;4881499;29;20112;-82
2022/09/03 06:37:47;;;;;;;0.00;0.00;;;15.40;92.10;;;;;;4884413;29;20101;-81
2022/09/03 06:40:21;;;;;;;0.00;0.00;;;15.40;92.10;;;;;;4885198;29;20041;-82
2022/09/03 06:43:00;;;;;;;0.00;0.00;;;15.40;92.40;;;;;;4886393;29;20061;-82
2022/09/03 06:45:28;;;;;;;0.00;0.00;;;15.40;92.10;;;;;;4883474;29;20081;-82
2022/09/03 06:47:54;;;;;;;0.00;0.00;;;15.40;92.20;;;;;;4883048;29;20041;-82
2022/09/03 06:50:23;;;;;;;0.00;0.00;;;15.50;92.20;;;;;;4880649;29;20077;-82
2022/09/03 06:52:51;;;;;;;0.00;0.00;;;15.50;92.30;;;;;;4882692;29;20056;-83
2022/09/03 06:55:18;;;;;;;0.00;0.00;;;15.60;92.20;;;;;;4884793;29;20048;-82
2022/09/03 06:57:45;;;;;;;0.00;0.00;;;15.70;92.40;;;;;;4882824;29;20042;-82
2022/09/03 07:00:20;;;;;;;0.00;0.00;;;15.70;92.10;;;;;;4883552;29;20421;-82
2022/09/03 07:02:47;;;;;;;0.00;0.00;;;15.70;92.10;;;;;;4882625;29;20060;-82
2022/09/03 07:05:14;;;;;;;0.00;0.00;;;15.80;92.00;;;;;;4885083;29;20044;-82
2022/09/03 07:07:45;;;;;;;0.00;0.00;;;15.80;92.10;;;;;;4881503;29;20117;-82
2022/09/03 07:10:15;;;;;;;0.00;0.00;;;15.90;92.30;;;;;;4882312;29;20048;-82
2022/09/03 07:12:41;;;;;;;0.00;0.00;;;16.00;92.10;;;;;;4886636;29;20052;-82
2022/09/03 07:15:09;;;;;;;0.00;0.00;;;16.10;92.00;;;;;;4883042;29;20065;-82
2022/09/03 07:17:38;;;;;;;0.00;0.00;;;16.10;92.00;;;;;;4883722;29;20698;-83
2022/09/03 07:20:05;;;;;;;0.00;0.00;;;16.10;92.30;;;;;;4888929;29;20077;-84
2022/09/03 07:22:32;;;;;;;0.00;0.00;;;16.20;92.30;;;;;;4880912;29;20076;-83
2022/09/03 07:25:01;;;;;;;0.00;0.00;;;16.10;92.50;;;;;;4889796;29;20132;-84
2022/09/03 07:27:28;;;;;;;0.00;0.00;;;17.70;92.30;;;;;;4880307;29;20066;-83
2022/09/03 07:29:55;;;;;;;0.00;0.00;;;16.40;91.70;;;;;;4884859;29;20052;-81
2022/09/03 07:32:21;;;;;;;0.00;0.00;;;16.40;91.90;;;;;;4879057;29;20493;-84
2022/09/03 07:34:51;;;;;;;0.00;0.00;;;16.50;91.70;;;;;;4882116;29;20108;-83
2022/09/03 07:37:18;;;;;;;;;;;16.50;91.50;;;;;;4885183;29;20048;-82
2022/09/03 07:39:45;;;;;;;0.00;0.00;;;16.70;91.00;;;;;;4881544;29;20215;-83
2022/09/03 07:42:13;;;;;;;0.03;0.03;;;16.70;91.20;;;;;;4885701;29;20049;-82
2022/09/03 07:44:40;;;;;;;0.00;0.00;;;16.80;91.10;;;;;;4882762;29;20082;-81
2022/09/03 07:47:07;;;;;;;0.00;0.00;;;16.80;90.90;;;;;;4883225;29;20314;-82
2022/09/03 07:49:35;;;;;;;0.00;0.00;;;16.90;91.10;;;;;;4881733;29;20041;-81
2022/09/03 07:52:02;;;;;;;0.00;0.00;;;16.90;91.00;;;;;;4885716;29;20048;-81
2022/09/03 07:54:30;;;;;;;0.00;0.00;;;17.00;90.80;;;;;;4884720;29;20045;-83
2022/09/03 07:56:57;;;;;;;0.00;0.00;;;17.00;90.70;;;;;;4885267;29;20538;-81
2022/09/03 07:59:25;;;;;;;0.00;0.00;;;17.10;90.70;;;;;;4884076;29;20554;-82
2022/09/03 08:01:52;;;;;;;0.00;0.00;;;17.20;90.50;;;;;;4884713;29;20117;-83
2022/09/03 08:04:20;;;;;;;0.00;0.00;;;17.90;90.80;;;;;;4885182;29;20109;-83
2022/09/03 08:06:48;;;;;;;0.00;0.00;;;17.40;90.30;;;;;;4883725;29;20082;-83
2022/09/03 08:09:15;;;;;;;0.00;0.00;;;17.40;90.50;;;;;;4885872;29;20093;-82
2022/09/03 08:11:42;;;;;;;0.00;0.00;;;17.40;90.20;;;;;;4884073;29;20057;-82
2022/09/03 08:14:11;;;;;;;0.00;0.00;;;17.50;89.70;;;;;;4883117;29;20112;-82
2022/09/03 08:16:41;;;;;;;0.00;0.00;;;17.60;89.50;;;;;;4883194;29;20052;-83
2022/09/03 08:19:08;;;;;;;0.00;0.00;;;17.60;89.50;;;;;;4883455;29;20056;-83
2022/09/03 08:21:35;;;;;;;0.00;0.00;;;17.70;90.00;;;;;;4881946;29;20506;-82
2022/09/03 08:24:02;;;;;;;0.00;0.00;;;17.80;89.70;;;;;;4881339;29;20045;-82
2022/09/03 08:26:31;;;;;;;0.00;0.00;;;17.80;88.70;;;;;;4880182;29;20410;-82
2022/09/03 08:28:58;;;;;;;0.00;0.00;;;17.80;89.70;;;;;;4882053;29;20541;-82
2022/09/03 08:31:26;;;;;;;0.00;0.00;;;17.90;89.10;;;;;;4879476;29;20040;-82
2022/09/03 08:33:56;;;;;;;0.00;0.00;;;17.90;89.00;;;;;;4879749;29;20057;-83
2022/09/03 08:36:24;;;;;;;0.00;0.00;;;18.00;88.80;;;;;;4883645;29;20052;-82
2022/09/03 08:38:55;;;;;;;0.00;0.00;;;18.00;89.60;;;;;;4881362;29;20529;-82
2022/09/03 08:41:29;;;;;;;0.00;0.00;;;18.00;88.70;;;;;;4881902;29;20656;-83
2022/09/03 08:44:14;;;;;;;0.00;0.00;;;18.10;88.70;;;;;;4881403;29;20097;-82
2022/09/03 08:46:50;;;;;;;0.00;0.00;;;18.20;88.20;;;;;;4879961;29;20049;-83
2022/09/03 08:49:25;;;;;;;0.00;0.00;;;18.40;88.40;;;;;;4882620;29;20100;-82
2022/09/03 08:51:54;;;;;;;0.00;0.00;;;18.40;87.60;;;;;;4881241;29;20052;-82
2022/09/03 08:54:26;;;;;;;0.00;0.00;;;18.50;87.70;;;;;;4879252;29;20049;-83
2022/09/03 08:56:55;;;;;;;0.00;0.00;;;18.60;87.00;;;;;;4882549;29;20044;-83
2022/09/03 08:59:22;;;;;;;0.00;0.00;;;18.70;86.20;;;;;;4880347;29;20048;-82
2022/09/03 09:02:17;;;;;;;0.00;0.00;;;18.70;86.40;;;;;;4876359;29;20525;-82
2022/09/03 09:04:58;;;;;;;0.00;0.00;;;18.80;86.40;;;;;;4882150;29;20101;-82
2022/09/03 09:07:32;;;;;;;0.10;0.10;;;18.90;85.30;;;;;;4878512;29;20502;-82
2022/09/03 09:10:08;;;;;;;0.00;0.00;;;19.00;85.00;;;;;;4879453;29;20056;-82
2022/09/03 09:12:44;;;;;;;0.00;0.00;;;19.00;85.50;;;;;;4883049;29;20049;-82
2022/09/03 09:15:25;;;;;;;0.00;0.00;;;19.10;84.90;;;;;;4873435;29;20049;-83
2022/09/03 09:18:02;;;;;;;0.00;0.00;;;19.10;86.00;;;;;;4878057;29;20049;-82
2022/09/03 09:20:40;;;;;;;0.00;0.00;;;19.20;85.90;;;;;;4881306;29;20053;-82
2022/09/03 09:23:12;;;;;;;0.00;0.00;;;19.30;84.70;;;;;;4879314;29;20045;-82
2022/09/03 09:25:45;;;;;;;0.00;0.00;;;19.40;84.50;;;;;;4878858;29;20483;-82
2022/09/03 09:28:16;;;;;;;0.00;0.00;;;19.50;83.70;;;;;;4875748;29;20395;-83
2022/09/03 09:33:16;;;;;;;0.00;0.00;;;19.60;83.00;;;;;;4856501;29;20063;-80
2022/09/03 09:35:44;;;;;;;0.00;0.00;;;19.70;82.70;;;;;;4854262;29;20118;-79
2022/09/03 09:38:12;;;;;;;0.00;0.00;;;19.80;84.30;;;;;;4856816;29;20387;-79
2022/09/03 09:40:43;;;;;;;0.00;0.00;;;19.80;83.50;;;;;;4857384;29;20529;-79
2022/09/03 09:43:14;;;;;;;0.00;0.00;;;20.00;83.30;;;;;;4858368;29;20042;-79
2022/09/03 09:45:43;;;;;;;0.03;0.00;;;20.00;82.30;;;;;;4853858;29;20057;-79
2022/09/03 09:48:20;;;;;;;0.00;0.00;;;20.10;82.70;;;;;;4859825;29;20041;-79
2022/09/03 09:50:48;;;;;;;0.00;0.00;;;20.20;82.70;;;;;;4861910;29;20395;-79
2022/09/03 09:53:20;;;;;;;0.00;0.00;;;20.20;82.80;;;;;;4872422;29;20044;-79
2022/09/03 09:55:52;;;;;;;0.00;0.00;;;20.30;82.60;;;;;;4861914;29;20037;-79
2022/09/03 09:58:22;;;;;;;0.00;0.00;;;20.30;81.50;;;;;;4861199;29;20045;-79
2022/09/03 10:01:02;;;;;;;0.00;0.00;;;20.40;82.80;;;;;;4861217;29;20140;-79
2022/09/03 10:03:33;;;;;;;0.00;0.00;;;20.50;81.30;;;;;;4860717;29;20053;-79
2022/09/03 10:06:52;;;;;;;0.00;0.00;;;20.60;80.30;;;;;;4861910;29;20426;-78
2022/09/03 10:09:03;;;;;;;0.00;0.00;;;20.70;80.70;;;;;;4861026;29;20110;-79
2022/09/03 10:11:31;;;;;;;0.00;0.00;;;20.70;80.60;;;;;;4861401;29;20052;-79
2022/09/03 10:13:58;;;;;;;0.00;0.00;;;20.80;81.00;;;;;;4861782;29;20124;-79
2022/09/03 10:16:29;;;;;;;0.00;0.00;;;20.90;81.60;;;;;;4859002;29;20106;-78
2022/09/03 10:19:05;;;;;;;0.00;0.00;;;20.90;80.70;;;;;;4862421;29;20049;-78
2022/09/03 10:21:40;;;;;;;0.00;0.00;;;21.00;80.70;;;;;;4860604;29;20050;-79
2022/09/03 10:24:30;;;;;;;0.00;0.00;;;21.10;80.20;;;;;;4874874;29;20041;-79
2022/09/03 10:26:57;;;;;;;0.00;0.00;;;21.10;81.10;;;;;;4857441;29;20049;-79
2022/09/03 10:29:28;;;;;;;0.00;0.00;;;21.20;80.60;;;;;;4861705;29;20044;-79
2022/09/03 10:32:09;;;;;;;0.00;0.00;;;21.30;80.00;;;;;;4861272;29;20525;-79
2022/09/03 10:34:43;;;;;;;0.00;0.00;;;21.40;80.00;;;;;;4860460;29;20414;-79
2022/09/03 10:37:20;;;;;;;0.00;0.00;;;21.50;77.80;;;;;;4858108;29;20053;-79
2022/09/03 10:40:04;;;;;;;0.00;0.00;;;21.60;79.10;;;;;;4875284;29;20042;-78
2022/09/03 10:42:40;;;;;;;0.00;0.00;;;21.70;78.70;;;;;;4861563;29;20041;-79
2022/09/03 10:45:17;;;;;;;0.00;0.00;;;21.70;78.30;;;;;;4870105;29;20568;-79
2022/09/03 10:48:07;;;;;;;0.00;0.00;;;21.80;78.10;;;;;;4857552;29;20046;-77
2022/09/03 10:50:47;;;;;;;0.00;0.00;;;21.80;77.10;;;;;;4861353;29;20037;-79
2022/09/03 10:53:26;;;;;;;0.00;0.00;;;21.90;77.60;;;;;;4874135;29;21387;-78
2022/09/03 10:56:00;;;;;;;0.00;0.00;;;22.00;76.90;;;;;;4859955;29;20038;-78
2022/09/03 10:58:54;;;;;;;0.00;0.00;;;22.10;77.30;;;;;;4860326;29;20038;-79
2022/09/03 11:01:31;;;;;;;0.00;0.00;;;22.00;78.20;;;;;;4856047;29;20057;-79
2022/09/03 11:04:13;;;;;;;0.00;0.00;;;22.10;78.60;;;;;;4860084;29;20068;-79
2022/09/03 11:06:49;;;;;;;0.00;0.00;;;22.10;77.90;;;;;;4860363;29;20061;-79
2022/09/03 11:09:20;;;;;;;0.00;0.00;;;22.20;77.20;;;;;;4858083;29;20406;-79
2022/09/03 11:11:52;;;;;;;0.00;0.00;;;22.30;77.20;;;;;;4861786;29;20054;-78
2022/09/03 11:14:29;;;;;;;0.00;0.00;;;22.40;77.20;;;;;;4858315;29;20049;-79
2022/09/03 11:17:06;;;;;;;0.00;0.00;;;22.40;77.70;;;;;;4856931;29;20053;-78
2022/09/03 11:19:39;;;;;;;0.00;0.00;;;22.40;76.90;;;;;;4857390;29;20098;-79
2022/09/03 11:22:08;;;;;;;0.00;0.00;;;22.50;77.00;;;;;;4859469;29;20041;-78
2022/09/03 11:24:39;;;;;;;0.00;0.00;;;22.60;77.30;;;;;;4872435;29;20511;-78
2022/09/03 11:27:23;;;;;;;0.00;0.00;;;22.60;76.30;;;;;;4851529;29;20426;-78
2022/09/03 11:29:57;;;;;;;0.00;0.00;;;22.70;75.60;;;;;;4851666;29;20188;-79
2022/09/03 11:32:33;;;;;;;0.00;0.00;;;22.70;76.30;;;;;;4853491;29;20053;-79
2022/09/03 11:35:00;;;;;;;0.00;0.00;;;22.80;76.30;;;;;;4853848;29;20046;-79
2022/09/03 11:37:29;;;;;;;0.00;0.00;;;22.90;76.30;;;;;;4858819;29;20050;-79
2022/09/03 11:40:02;;;;;;;0.00;0.00;;;23.00;76.10;;;;;;4859752;29;20037;-80
2022/09/03 11:42:34;;;;;;;0.00;0.00;;;23.00;75.20;;;;;;4864024;29;20063;-79
2022/09/03 11:45:21;;;;;;;0.00;0.00;;;23.00;76.20;;;;;;4854629;29;20049;-79
2022/09/03 11:47:49;;;;;;;0.00;0.00;;;23.00;76.20;;;;;;4858535;29;20037;-79
2022/09/03 11:50:20;;;;;;;0.00;0.00;;;23.10;75.90;;;;;;4858844;29;20037;-79
2022/09/03 11:52:51;;;;;;;0.00;0.00;;;23.20;76.40;;;;;;4858250;29;20054;-78
2022/09/03 11:55:29;;;;;;;0.00;0.00;;;23.30;75.60;;;;;;4858927;29;20557;-79
2022/09/03 11:58:12;;;;;;;0.00;0.00;;;23.30;74.90;;;;;;4860842;29;21098;-79
2022/09/03 12:00:43;;;;;;;0.00;0.00;;;23.30;75.50;;;;;;4864881;29;20056;-79
2022/09/03 12:03:14;;;;;;;0.00;0.00;;;23.30;75.90;;;;;;4860112;29;20038;-79
2022/09/03 12:05:48;;;;;;;0.00;0.00;;;23.30;75.40;;;;;;4853605;29;20045;-77
2022/09/03 12:08:46;;;;;;;0.00;0.00;;;23.40;75.30;;;;;;4851511;29;20038;-79
2022/09/03 12:11:29;;;;;;;0.00;0.00;;;23.40;74.60;;;;;;4858488;29;20056;-79
2022/09/03 12:14:05;;;;;;;0.00;0.00;;;23.50;75.00;;;;;;4855461;29;20101;-79
2022/09/03 12:17:13;;;;;;;0.00;0.00;;;23.50;73.80;;;;;;4850962;29;20287;-79
2022/09/03 12:19:47;;;;;;;0.00;0.00;;;23.50;74.50;;;;;;4863852;29;20053;-79
2022/09/03 12:22:16;;;;;;;0.00;0.00;;;23.60;75.30;;;;;;4849907;29;20473;-78
2022/09/03 12:24:44;;;;;;;0.00;0.00;;;23.70;74.80;;;;;;4853704;29;20082;-80
2022/09/03 12:27:16;;;;;;;0.00;0.00;;;23.70;75.20;;;;;;4853481;29;20296;-79
2022/09/03 12:29:56;;;;;;;0.00;0.00;;;23.70;73.80;;;;;;4858531;29;20481;-79
2022/09/03 12:32:25;;;;;;;0.00;0.00;;;23.80;73.80;;;;;;4866150;29;20048;-79
2022/09/03 12:34:52;;;;;;;0.00;0.00;;;23.90;74.20;;;;;;4864921;29;20053;-78
2022/09/03 12:37:22;;;;;;;0.00;0.00;;;23.90;74.50;;;;;;4850508;29;20642;-79
2022/09/03 12:40:17;;;;;;;0.00;0.00;;;24.00;73.70;;;;;;4853363;29;20064;-78
2022/09/03 12:42:46;;;;;;;0.00;0.00;;;24.10;73.50;;;;;;4851080;29;20057;-78
2022/09/03 12:45:19;;;;;;;0.00;0.00;;;24.10;74.10;;;;;;4855665;29;20050;-79
2022/09/03 12:47:46;;;;;;;0.00;0.00;;;24.10;74.70;;;;;;4855380;29;20460;-77
2022/09/03 12:50:14;;;;;;;0.00;0.00;;;24.10;73.70;;;;;;4855697;29;20054;-79
2022/09/03 12:52:46;;;;;;;0.00;0.00;;;24.20;73.70;;;;;;4848553;29;20113;-80
2022/09/03 12:55:25;;;;;;;0.00;0.00;;;24.20;72.90;;;;;;4849620;29;20045;-79
2022/09/03 12:58:02;;;;;;;0.00;0.00;;;24.20;73.50;;;;;;4868256;29;20049;-79
2022/09/03 13:00:32;;;;;;;0.00;0.00;;;24.30;72.80;;;;;;4852798;29;20102;-79
2022/09/03 13:03:03;;;;;;;0.00;0.00;;;24.40;72.80;;;;;;4867303;29;20068;-80
2022/09/03 13:05:32;;;;;;;0.00;0.00;;;24.50;72.50;;;;;;4856463;29;20205;-78
2022/09/03 13:08:04;;;;;;;;;;;24.30;72.20;;;;;;4855649;29;20053;-79
2022/09/03 13:10:36;;;;;;;0.00;0.00;;;24.40;73.30;;;;;;4854273;29;19988;-79
2022/09/03 13:13:19;;;;;;;0.00;0.00;;;24.50;71.80;;;;;;4852512;29;20073;-79
2022/09/03 13:16:10;;;;;;;0.00;0.00;;;24.50;72.60;;;;;;4854138;29;20057;-79
2022/09/03 13:18:50;;;;;;;0.00;0.00;;;24.60;71.50;;;;;;4855801;29;20041;-78